sensor_id;sensor_type;location;lat;lon;timestamp;P1;durP1;ratioP1;P2;durP2;ratioP2
37349;SDS011;23231;52.358;4.926;2022-07-29T00:00:11;5.88;;;1.80;;
37349;SDS011;23231;52.358;4.926;2022-07-29T00:05:12;6.05;;;2.20;;
37349;SDS011;23231;52.358;4.926;2022-07-29T00:10:13;4.32;;;1.70;;
37349;SDS011;23231;52.358;4.926;2022-07-29T00:15:13;5.05;;;1.80;;
37349;SDS011;23231;52.358;4.926;2022-07-29T00:20:14;4.70;;;1.67;;
37349;SDS011;23231;52.358;4.926;2022-07-29T00:25:14;3.85;;;1.52;;
37349;SDS011;23231;52.358;4.926;2022-07-29T00:30:15;5.22;;;1.60;;
37349;SDS011;23231;52.358;4.926;2022-07-29T00:35:15;5.28;;;1.70;;
37349;SDS011;23231;52.358;4.926;2022-07-29T00:40:34;4.57;;;1.50;;
37349;SDS011;23231;52.358;4.926;2022-07-29T00:45:35;5.50;;;1.83;;
37349;SDS011;23231;52.358;4.926;2022-07-29T00:50:36;5.20;;;1.92;;
37349;SDS011;23231;52.358;4.926;2022-07-29T00:55:37;5.18;;;1.60;;
37349;SDS011;23231;52.358;4.926;2022-07-29T01:00:37;7.57;;;1.98;;
37349;SDS011;23231;52.358;4.926;2022-07-29T01:05:38;4.30;;;1.80;;
37349;SDS011;23231;52.358;4.926;2022-07-29T01:10:41;4.65;;;1.65;;
37349;SDS011;23231;52.358;4.926;2022-07-29T01:15:54;3.03;;;1.67;;
37349;SDS011;23231;52.358;4.926;2022-07-29T01:31:33;3.53;;;1.60;;
37349;SDS011;23231;52.358;4.926;2022-07-29T01:36:37;4.85;;;1.95;;
37349;SDS011;23231;52.358;4.926;2022-07-29T01:41:52;4.38;;;2.08;;
37349;SDS011;23231;52.358;4.926;2022-07-29T01:46:58;5.28;;;2.42;;
37349;SDS011;23231;52.358;4.926;2022-07-29T01:52:01;3.88;;;2.03;;
37349;SDS011;23231;52.358;4.926;2022-07-29T01:57:06;6.63;;;2.42;;
37349;SDS011;23231;52.358;4.926;2022-07-29T02:02:08;4.07;;;2.35;;
37349;SDS011;23231;52.358;4.926;2022-07-29T02:07:11;6.40;;;2.72;;
37349;SDS011;23231;52.358;4.926;2022-07-29T02:12:14;4.72;;;2.50;;
37349;SDS011;23231;52.358;4.926;2022-07-29T02:18:00;7.35;;;2.70;;
37349;SDS011;23231;52.358;4.926;2022-07-29T02:22:54;4.10;;;2.55;;
37349;SDS011;23231;52.358;4.926;2022-07-29T02:27:55;5.65;;;2.40;;
37349;SDS011;23231;52.358;4.926;2022-07-29T02:32:56;5.05;;;2.38;;
37349;SDS011;23231;52.358;4.926;2022-07-29T02:37:57;6.30;;;2.60;;
37349;SDS011;23231;52.358;4.926;2022-07-29T02:43:17;4.85;;;2.47;;
37349;SDS011;23231;52.358;4.926;2022-07-29T02:48:18;4.40;;;2.53;;
37349;SDS011;23231;52.358;4.926;2022-07-29T02:53:23;4.78;;;2.22;;
37349;SDS011;23231;52.358;4.926;2022-07-29T02:58:26;5.05;;;2.20;;
37349;SDS011;23231;52.358;4.926;2022-07-29T03:03:30;5.15;;;2.38;;
37349;SDS011;23231;52.358;4.926;2022-07-29T03:08:32;5.13;;;2.15;;
37349;SDS011;23231;52.358;4.926;2022-07-29T03:13:34;8.30;;;2.25;;
37349;SDS011;23231;52.358;4.926;2022-07-29T03:18:35;3.83;;;2.30;;
37349;SDS011;23231;52.358;4.926;2022-07-29T03:23:36;3.50;;;2.00;;
37349;SDS011;23231;52.358;4.926;2022-07-29T03:28:36;5.53;;;2.10;;
37349;SDS011;23231;52.358;4.926;2022-07-29T03:33:37;5.28;;;2.10;;
37349;SDS011;23231;52.358;4.926;2022-07-29T03:38:37;6.10;;;2.45;;
37349;SDS011;23231;52.358;4.926;2022-07-29T03:43:38;5.45;;;2.10;;
37349;SDS011;23231;52.358;4.926;2022-07-29T03:48:41;4.80;;;2.00;;
37349;SDS011;23231;52.358;4.926;2022-07-29T03:53:43;3.17;;;1.90;;
37349;SDS011;23231;52.358;4.926;2022-07-29T03:58:43;4.22;;;2.33;;
37349;SDS011;23231;52.358;4.926;2022-07-29T04:03:44;5.28;;;2.20;;
37349;SDS011;23231;52.358;4.926;2022-07-29T04:08:45;4.35;;;2.00;;
37349;SDS011;23231;52.358;4.926;2022-07-29T04:13:45;7.30;;;2.38;;
37349;SDS011;23231;52.358;4.926;2022-07-29T04:18:46;5.03;;;2.25;;
37349;SDS011;23231;52.358;4.926;2022-07-29T04:23:46;4.93;;;2.67;;
37349;SDS011;23231;52.358;4.926;2022-07-29T04:28:49;8.70;;;2.40;;
37349;SDS011;23231;52.358;4.926;2022-07-29T04:33:50;5.43;;;2.20;;
37349;SDS011;23231;52.358;4.926;2022-07-29T04:38:50;6.25;;;2.38;;
37349;SDS011;23231;52.358;4.926;2022-07-29T04:43:51;5.05;;;2.22;;
37349;SDS011;23231;52.358;4.926;2022-07-29T04:48:51;5.00;;;2.22;;
37349;SDS011;23231;52.358;4.926;2022-07-29T04:53:51;5.03;;;2.22;;
37349;SDS011;23231;52.358;4.926;2022-07-29T04:58:52;6.13;;;2.38;;
37349;SDS011;23231;52.358;4.926;2022-07-29T05:03:52;4.50;;;2.20;;
37349;SDS011;23231;52.358;4.926;2022-07-29T05:08:53;6.03;;;2.28;;
37349;SDS011;23231;52.358;4.926;2022-07-29T05:13:53;4.65;;;2.05;;
37349;SDS011;23231;52.358;4.926;2022-07-29T05:18:53;5.55;;;2.20;;
37349;SDS011;23231;52.358;4.926;2022-07-29T05:23:54;6.20;;;2.50;;
37349;SDS011;23231;52.358;4.926;2022-07-29T05:28:54;5.10;;;2.03;;
37349;SDS011;23231;52.358;4.926;2022-07-29T05:33:55;6.07;;;2.22;;
37349;SDS011;23231;52.358;4.926;2022-07-29T05:38:55;8.07;;;2.30;;
37349;SDS011;23231;52.358;4.926;2022-07-29T05:43:55;6.88;;;2.20;;
37349;SDS011;23231;52.358;4.926;2022-07-29T05:48:56;5.60;;;2.00;;
37349;SDS011;23231;52.358;4.926;2022-07-29T05:53:57;5.90;;;2.10;;
37349;SDS011;23231;52.358;4.926;2022-07-29T05:58:57;4.15;;;2.05;;
37349;SDS011;23231;52.358;4.926;2022-07-29T06:03:58;6.15;;;2.20;;
37349;SDS011;23231;52.358;4.926;2022-07-29T06:08:59;7.35;;;2.22;;
37349;SDS011;23231;52.358;4.926;2022-07-29T06:13:59;4.10;;;2.50;;
37349;SDS011;23231;52.358;4.926;2022-07-29T06:19:00;5.25;;;2.20;;
37349;SDS011;23231;52.358;4.926;2022-07-29T06:24:00;3.88;;;2.17;;
37349;SDS011;23231;52.358;4.926;2022-07-29T06:29:01;6.18;;;2.30;;
37349;SDS011;23231;52.358;4.926;2022-07-29T06:34:01;9.80;;;2.38;;
37349;SDS011;23231;52.358;4.926;2022-07-29T06:39:08;5.30;;;2.30;;
37349;SDS011;23231;52.358;4.926;2022-07-29T06:44:09;5.95;;;2.42;;
37349;SDS011;23231;52.358;4.926;2022-07-29T06:49:09;3.95;;;2.10;;
37349;SDS011;23231;52.358;4.926;2022-07-29T06:54:10;6.50;;;2.40;;
37349;SDS011;23231;52.358;4.926;2022-07-29T06:59:11;4.57;;;2.28;;
37349;SDS011;23231;52.358;4.926;2022-07-29T07:04:12;5.45;;;2.10;;
37349;SDS011;23231;52.358;4.926;2022-07-29T07:09:13;4.63;;;2.10;;
37349;SDS011;23231;52.358;4.926;2022-07-29T07:14:13;6.90;;;2.38;;
37349;SDS011;23231;52.358;4.926;2022-07-29T07:19:14;5.93;;;2.65;;
37349;SDS011;23231;52.358;4.926;2022-07-29T07:24:14;4.25;;;2.47;;
37349;SDS011;23231;52.358;4.926;2022-07-29T07:29:14;6.07;;;2.35;;
37349;SDS011;23231;52.358;4.926;2022-07-29T07:34:15;7.63;;;2.88;;
37349;SDS011;23231;52.358;4.926;2022-07-29T07:39:16;8.07;;;2.40;;
37349;SDS011;23231;52.358;4.926;2022-07-29T07:44:16;6.00;;;2.40;;
37349;SDS011;23231;52.358;4.926;2022-07-29T07:49:17;4.10;;;2.50;;
37349;SDS011;23231;52.358;4.926;2022-07-29T07:54:17;6.18;;;2.72;;
37349;SDS011;23231;52.358;4.926;2022-07-29T07:59:18;4.80;;;2.58;;
37349;SDS011;23231;52.358;4.926;2022-07-29T08:04:18;5.57;;;2.60;;
37349;SDS011;23231;52.358;4.926;2022-07-29T08:09:40;6.53;;;2.80;;
37349;SDS011;23231;52.358;4.926;2022-07-29T08:14:40;4.95;;;2.67;;
37349;SDS011;23231;52.358;4.926;2022-07-29T08:19:41;6.90;;;3.22;;
37349;SDS011;23231;52.358;4.926;2022-07-29T08:24:41;6.78;;;3.10;;
37349;SDS011;23231;52.358;4.926;2022-07-29T08:29:52;7.88;;;2.50;;
37349;SDS011;23231;52.358;4.926;2022-07-29T08:34:53;4.53;;;2.25;;
37349;SDS011;23231;52.358;4.926;2022-07-29T08:39:53;9.73;;;2.70;;
37349;SDS011;23231;52.358;4.926;2022-07-29T08:44:54;6.32;;;2.53;;
37349;SDS011;23231;52.358;4.926;2022-07-29T08:49:54;4.70;;;2.67;;
37349;SDS011;23231;52.358;4.926;2022-07-29T08:54:55;5.93;;;3.08;;
37349;SDS011;23231;52.358;4.926;2022-07-29T08:59:55;4.75;;;2.80;;
37349;SDS011;23231;52.358;4.926;2022-07-29T09:04:58;8.25;;;3.30;;
37349;SDS011;23231;52.358;4.926;2022-07-29T09:10:00;6.28;;;3.10;;
37349;SDS011;23231;52.358;4.926;2022-07-29T09:15:01;5.78;;;2.70;;
37349;SDS011;23231;52.358;4.926;2022-07-29T09:20:11;6.38;;;2.90;;
37349;SDS011;23231;52.358;4.926;2022-07-29T09:25:31;5.97;;;2.80;;
37349;SDS011;23231;52.358;4.926;2022-07-29T09:30:36;5.50;;;2.50;;
37349;SDS011;23231;52.358;4.926;2022-07-29T09:41:07;5.18;;;2.70;;
37349;SDS011;23231;52.358;4.926;2022-07-29T09:46:13;5.05;;;2.53;;
37349;SDS011;23231;52.358;4.926;2022-07-29T09:51:17;5.88;;;2.85;;
37349;SDS011;23231;52.358;4.926;2022-07-29T09:56:19;7.35;;;3.67;;
37349;SDS011;23231;52.358;4.926;2022-07-29T10:01:27;9.25;;;4.18;;
37349;SDS011;23231;52.358;4.926;2022-07-29T10:06:28;8.35;;;4.90;;
37349;SDS011;23231;52.358;4.926;2022-07-29T10:11:28;6.78;;;3.00;;
37349;SDS011;23231;52.358;4.926;2022-07-29T10:16:29;7.15;;;3.15;;
37349;SDS011;23231;52.358;4.926;2022-07-29T10:21:32;5.78;;;3.10;;
37349;SDS011;23231;52.358;4.926;2022-07-29T10:26:33;6.38;;;2.80;;
37349;SDS011;23231;52.358;4.926;2022-07-29T10:31:39;6.13;;;2.40;;
37349;SDS011;23231;52.358;4.926;2022-07-29T10:36:56;8.35;;;2.60;;
37349;SDS011;23231;52.358;4.926;2022-07-29T10:42:14;5.93;;;2.50;;
37349;SDS011;23231;52.358;4.926;2022-07-29T10:47:25;6.07;;;3.10;;
37349;SDS011;23231;52.358;4.926;2022-07-29T10:52:51;6.70;;;2.97;;
37349;SDS011;23231;52.358;4.926;2022-07-29T11:03:42;7.50;;;3.03;;
37349;SDS011;23231;52.358;4.926;2022-07-29T11:08:42;5.55;;;2.45;;
37349;SDS011;23231;52.358;4.926;2022-07-29T11:24:24;6.95;;;2.78;;
37349;SDS011;23231;52.358;4.926;2022-07-29T11:29:27;5.28;;;2.25;;
37349;SDS011;23231;52.358;4.926;2022-07-29T11:34:31;5.72;;;2.10;;
37349;SDS011;23231;52.358;4.926;2022-07-29T11:39:36;7.40;;;2.67;;
37349;SDS011;23231;52.358;4.926;2022-07-29T11:49:56;8.48;;;3.10;;
37349;SDS011;23231;52.358;4.926;2022-07-29T11:54:58;8.65;;;3.50;;
37349;SDS011;23231;52.358;4.926;2022-07-29T12:00:06;5.95;;;2.90;;
37349;SDS011;23231;52.358;4.926;2022-07-29T12:05:10;4.95;;;2.72;;
37349;SDS011;23231;52.358;4.926;2022-07-29T12:10:11;7.65;;;3.53;;
37349;SDS011;23231;52.358;4.926;2022-07-29T12:15:15;6.05;;;3.45;;
37349;SDS011;23231;52.358;4.926;2022-07-29T12:20:27;6.53;;;3.50;;
37349;SDS011;23231;52.358;4.926;2022-07-29T12:25:32;9.68;;;3.42;;
37349;SDS011;23231;52.358;4.926;2022-07-29T12:35:34;5.22;;;3.60;;
37349;SDS011;23231;52.358;4.926;2022-07-29T12:40:35;7.78;;;3.60;;
37349;SDS011;23231;52.358;4.926;2022-07-29T12:45:36;6.82;;;3.50;;
37349;SDS011;23231;52.358;4.926;2022-07-29T12:55:57;8.15;;;4.00;;
37349;SDS011;23231;52.358;4.926;2022-07-29T13:06:07;6.75;;;3.50;;
37349;SDS011;23231;52.358;4.926;2022-07-29T13:16:34;7.00;;;3.38;;
37349;SDS011;23231;52.358;4.926;2022-07-29T13:21:35;5.13;;;2.60;;
37349;SDS011;23231;52.358;4.926;2022-07-29T13:26:39;5.45;;;2.72;;
37349;SDS011;23231;52.358;4.926;2022-07-29T13:31:39;5.55;;;2.70;;
37349;SDS011;23231;52.358;4.926;2022-07-29T13:36:40;5.15;;;2.85;;
37349;SDS011;23231;52.358;4.926;2022-07-29T13:41:40;5.22;;;2.88;;
37349;SDS011;23231;52.358;4.926;2022-07-29T13:46:41;7.15;;;3.00;;
37349;SDS011;23231;52.358;4.926;2022-07-29T13:51:41;8.93;;;2.50;;
37349;SDS011;23231;52.358;4.926;2022-07-29T13:56:42;4.97;;;2.10;;
37349;SDS011;23231;52.358;4.926;2022-07-29T14:01:42;7.28;;;2.80;;
37349;SDS011;23231;52.358;4.926;2022-07-29T14:06:43;6.95;;;2.78;;
37349;SDS011;23231;52.358;4.926;2022-07-29T14:11:43;4.95;;;2.50;;
37349;SDS011;23231;52.358;4.926;2022-07-29T14:16:46;6.75;;;2.50;;
37349;SDS011;23231;52.358;4.926;2022-07-29T14:21:46;7.47;;;2.40;;
37349;SDS011;23231;52.358;4.926;2022-07-29T14:26:46;6.65;;;2.28;;
37349;SDS011;23231;52.358;4.926;2022-07-29T14:31:47;5.43;;;2.70;;
37349;SDS011;23231;52.358;4.926;2022-07-29T14:36:47;4.13;;;2.00;;
37349;SDS011;23231;52.358;4.926;2022-07-29T14:41:48;5.43;;;2.20;;
37349;SDS011;23231;52.358;4.926;2022-07-29T14:46:49;5.93;;;2.10;;
37349;SDS011;23231;52.358;4.926;2022-07-29T14:51:49;6.10;;;1.98;;
37349;SDS011;23231;52.358;4.926;2022-07-29T14:56:51;5.70;;;2.30;;
37349;SDS011;23231;52.358;4.926;2022-07-29T15:01:55;5.68;;;2.35;;
37349;SDS011;23231;52.358;4.926;2022-07-29T15:06:55;6.60;;;2.47;;
37349;SDS011;23231;52.358;4.926;2022-07-29T15:11:55;7.15;;;2.65;;
37349;SDS011;23231;52.358;4.926;2022-07-29T15:16:56;5.55;;;2.10;;
37349;SDS011;23231;52.358;4.926;2022-07-29T15:21:56;5.03;;;2.53;;
37349;SDS011;23231;52.358;4.926;2022-07-29T15:26:57;4.75;;;2.33;;
37349;SDS011;23231;52.358;4.926;2022-07-29T15:31:57;9.75;;;2.40;;
37349;SDS011;23231;52.358;4.926;2022-07-29T15:36:57;6.10;;;2.28;;
37349;SDS011;23231;52.358;4.926;2022-07-29T15:41:58;5.80;;;2.67;;
37349;SDS011;23231;52.358;4.926;2022-07-29T15:47:00;5.38;;;2.33;;
37349;SDS011;23231;52.358;4.926;2022-07-29T15:52:04;6.47;;;2.42;;
37349;SDS011;23231;52.358;4.926;2022-07-29T15:57:06;7.47;;;2.77;;
37349;SDS011;23231;52.358;4.926;2022-07-29T16:02:06;7.15;;;2.38;;
37349;SDS011;23231;52.358;4.926;2022-07-29T16:07:07;5.90;;;3.20;;
37349;SDS011;23231;52.358;4.926;2022-07-29T16:12:08;7.20;;;2.90;;
37349;SDS011;23231;52.358;4.926;2022-07-29T16:17:09;5.53;;;2.58;;
37349;SDS011;23231;52.358;4.926;2022-07-29T16:22:09;6.93;;;2.90;;
37349;SDS011;23231;52.358;4.926;2022-07-29T16:27:10;10.02;;;3.15;;
37349;SDS011;23231;52.358;4.926;2022-07-29T16:32:11;5.78;;;2.80;;
37349;SDS011;23231;52.358;4.926;2022-07-29T16:37:11;8.23;;;2.65;;
37349;SDS011;23231;52.358;4.926;2022-07-29T16:42:12;7.03;;;3.05;;
37349;SDS011;23231;52.358;4.926;2022-07-29T16:47:12;6.53;;;3.45;;
37349;SDS011;23231;52.358;4.926;2022-07-29T16:52:12;5.53;;;2.58;;
37349;SDS011;23231;52.358;4.926;2022-07-29T16:57:13;9.68;;;3.40;;
37349;SDS011;23231;52.358;4.926;2022-07-29T17:02:13;7.65;;;3.30;;
37349;SDS011;23231;52.358;4.926;2022-07-29T17:07:14;7.43;;;3.15;;
37349;SDS011;23231;52.358;4.926;2022-07-29T17:12:15;10.90;;;2.75;;
37349;SDS011;23231;52.358;4.926;2022-07-29T17:17:15;9.90;;;3.22;;
37349;SDS011;23231;52.358;4.926;2022-07-29T17:22:16;9.48;;;3.30;;
37349;SDS011;23231;52.358;4.926;2022-07-29T17:27:16;10.25;;;3.28;;
37349;SDS011;23231;52.358;4.926;2022-07-29T17:32:17;4.82;;;3.00;;
37349;SDS011;23231;52.358;4.926;2022-07-29T17:37:17;6.18;;;3.00;;
37349;SDS011;23231;52.358;4.926;2022-07-29T17:42:18;5.18;;;3.00;;
37349;SDS011;23231;52.358;4.926;2022-07-29T17:47:18;7.82;;;2.53;;
37349;SDS011;23231;52.358;4.926;2022-07-29T17:52:18;9.40;;;4.10;;
37349;SDS011;23231;52.358;4.926;2022-07-29T17:57:19;6.53;;;2.50;;
37349;SDS011;23231;52.358;4.926;2022-07-29T18:02:19;7.00;;;2.88;;
37349;SDS011;23231;52.358;4.926;2022-07-29T18:07:20;7.07;;;2.38;;
37349;SDS011;23231;52.358;4.926;2022-07-29T18:12:20;9.05;;;3.00;;
37349;SDS011;23231;52.358;4.926;2022-07-29T18:17:21;8.77;;;3.42;;
37349;SDS011;23231;52.358;4.926;2022-07-29T18:22:21;9.13;;;2.83;;
37349;SDS011;23231;52.358;4.926;2022-07-29T18:27:22;7.40;;;2.97;;
37349;SDS011;23231;52.358;4.926;2022-07-29T18:32:24;7.63;;;2.67;;
37349;SDS011;23231;52.358;4.926;2022-07-29T18:37:25;6.28;;;2.88;;
37349;SDS011;23231;52.358;4.926;2022-07-29T18:42:25;6.95;;;2.65;;
37349;SDS011;23231;52.358;4.926;2022-07-29T18:47:26;9.73;;;3.38;;
37349;SDS011;23231;52.358;4.926;2022-07-29T18:52:27;7.15;;;2.58;;
37349;SDS011;23231;52.358;4.926;2022-07-29T18:57:28;9.45;;;3.55;;
37349;SDS011;23231;52.358;4.926;2022-07-29T19:02:28;8.73;;;3.42;;
37349;SDS011;23231;52.358;4.926;2022-07-29T19:07:29;6.68;;;3.30;;
37349;SDS011;23231;52.358;4.926;2022-07-29T19:12:29;8.05;;;3.72;;
37349;SDS011;23231;52.358;4.926;2022-07-29T19:17:30;9.38;;;3.08;;
37349;SDS011;23231;52.358;4.926;2022-07-29T19:22:30;10.63;;;4.18;;
37349;SDS011;23231;52.358;4.926;2022-07-29T19:27:32;12.75;;;3.50;;
37349;SDS011;23231;52.358;4.926;2022-07-29T19:32:32;7.63;;;3.60;;
37349;SDS011;23231;52.358;4.926;2022-07-29T19:37:32;10.18;;;4.10;;
37349;SDS011;23231;52.358;4.926;2022-07-29T19:42:33;10.88;;;4.40;;
37349;SDS011;23231;52.358;4.926;2022-07-29T19:47:33;8.55;;;3.70;;
37349;SDS011;23231;52.358;4.926;2022-07-29T19:52:34;9.75;;;3.90;;
37349;SDS011;23231;52.358;4.926;2022-07-29T19:57:35;11.10;;;4.20;;
37349;SDS011;23231;52.358;4.926;2022-07-29T20:02:36;9.30;;;4.28;;
37349;SDS011;23231;52.358;4.926;2022-07-29T20:07:37;9.85;;;4.15;;
37349;SDS011;23231;52.358;4.926;2022-07-29T20:12:37;10.80;;;4.15;;
37349;SDS011;23231;52.358;4.926;2022-07-29T20:17:38;14.35;;;4.20;;
37349;SDS011;23231;52.358;4.926;2022-07-29T20:22:39;13.93;;;3.92;;
37349;SDS011;23231;52.358;4.926;2022-07-29T20:27:39;10.00;;;3.85;;
37349;SDS011;23231;52.358;4.926;2022-07-29T20:32:40;11.50;;;3.95;;
37349;SDS011;23231;52.358;4.926;2022-07-29T20:42:04;19.15;;;4.30;;
37349;SDS011;23231;52.358;4.926;2022-07-29T20:47:04;8.32;;;3.88;;
37349;SDS011;23231;52.358;4.926;2022-07-29T20:52:05;9.95;;;3.78;;
37349;SDS011;23231;52.358;4.926;2022-07-29T20:57:05;7.65;;;3.83;;
37349;SDS011;23231;52.358;4.926;2022-07-29T21:02:06;9.73;;;3.97;;
37349;SDS011;23231;52.358;4.926;2022-07-29T21:07:07;11.13;;;3.70;;
37349;SDS011;23231;52.358;4.926;2022-07-29T21:12:08;12.75;;;4.03;;
37349;SDS011;23231;52.358;4.926;2022-07-29T21:17:10;9.07;;;3.88;;
37349;SDS011;23231;52.358;4.926;2022-07-29T21:22:10;10.57;;;4.20;;
37349;SDS011;23231;52.358;4.926;2022-07-29T21:27:11;7.78;;;4.35;;
37349;SDS011;23231;52.358;4.926;2022-07-29T21:32:31;9.50;;;4.28;;
37349;SDS011;23231;52.358;4.926;2022-07-29T21:37:31;14.80;;;5.00;;
37349;SDS011;23231;52.358;4.926;2022-07-29T21:42:32;9.93;;;4.50;;
37349;SDS011;23231;52.358;4.926;2022-07-29T21:47:33;7.97;;;4.82;;
37349;SDS011;23231;52.358;4.926;2022-07-29T21:52:33;7.35;;;4.30;;
37349;SDS011;23231;52.358;4.926;2022-07-29T21:57:34;9.52;;;4.32;;
37349;SDS011;23231;52.358;4.926;2022-07-29T22:02:35;10.30;;;3.97;;
37349;SDS011;23231;52.358;4.926;2022-07-29T22:07:35;9.50;;;4.55;;
37349;SDS011;23231;52.358;4.926;2022-07-29T22:12:36;10.98;;;5.07;;
37349;SDS011;23231;52.358;4.926;2022-07-29T22:17:36;11.40;;;5.15;;
37349;SDS011;23231;52.358;4.926;2022-07-29T22:22:37;9.20;;;4.72;;
37349;SDS011;23231;52.358;4.926;2022-07-29T22:27:37;11.80;;;4.53;;
37349;SDS011;23231;52.358;4.926;2022-07-29T22:32:38;11.60;;;5.30;;
37349;SDS011;23231;52.358;4.926;2022-07-29T22:37:39;11.45;;;5.20;;
37349;SDS011;23231;52.358;4.926;2022-07-29T22:42:39;10.68;;;4.80;;
37349;SDS011;23231;52.358;4.926;2022-07-29T22:47:40;9.63;;;5.03;;
37349;SDS011;23231;52.358;4.926;2022-07-29T22:52:40;10.55;;;5.20;;
37349;SDS011;23231;52.358;4.926;2022-07-29T22:57:41;10.93;;;4.95;;
37349;SDS011;23231;52.358;4.926;2022-07-29T23:02:41;10.90;;;5.65;;
37349;SDS011;23231;52.358;4.926;2022-07-29T23:07:42;12.23;;;5.40;;
37349;SDS011;23231;52.358;4.926;2022-07-29T23:12:42;13.10;;;5.80;;
37349;SDS011;23231;52.358;4.926;2022-07-29T23:17:42;11.52;;;5.15;;
37349;SDS011;23231;52.358;4.926;2022-07-29T23:22:43;12.98;;;5.80;;
37349;SDS011;23231;52.358;4.926;2022-07-29T23:27:43;13.13;;;7.28;;
37349;SDS011;23231;52.358;4.926;2022-07-29T23:32:44;15.15;;;9.38;;
37349;SDS011;23231;52.358;4.926;2022-07-29T23:37:44;18.20;;;8.18;;
37349;SDS011;23231;52.358;4.926;2022-07-29T23:42:45;13.07;;;7.70;;
37349;SDS011;23231;52.358;4.926;2022-07-29T23:47:45;12.77;;;7.65;;
37349;SDS011;23231;52.358;4.926;2022-07-29T23:52:46;15.70;;;7.63;;
37349;SDS011;23231;52.358;4.926;2022-07-29T23:57:46;14.27;;;7.53;;
